首页
METAR-TAF:

METAR-TAF

机场 :

法鲁, 育康省, 加拿大

纬度: 62-12N, 经度: 133-22W, 海拔: 717米

当前天气观测

该预报发布于1小时和16分钟前的16:00 UTC
风速3节,风向东转东北
温度 9°C
湿度 61%
气压 1012 hPa
能見度: 48.3公里
少量云层高于6000英尺
散云层高于11000英尺

METAR: CZFA 051600Z 06003KT 30SM FEW060 SCT110 09/02 A2987 RMK CF1AC3 CF TR SLP137

时间: 10:16 (17:16 UTC)

预报

该预报发布于2小时和38分钟前的14:38 UTC
预报有效从05日的 15点(UTC)到 06日的 01点(UTC)
风速3节,风向多变
能見度: 10公里
散云层高于12000英尺
从 05日的 2000点(UTC)
风速8节,风向西
能見度: 10公里
散云层高于8000英尺
短暂存在
从 05日的 20点(UTC)到 06日的 01点(UTC)
能見度: 10公里
散云层高于6000英尺, 积雨云.
多云层高于8000英尺
小阵雨, 附近有雷暴

TAF: CZFA 051438Z 0515/0601 VRB03KT P6SM SCT120 FM052000 26008KT P6SM SCT080 TEMPO 0520/0601 P6SM -SHRA VCTS SCT060CB BKN080 RMK NXT FCST BY 051800Z

超过4000个机场的气象观测和天气预报(METAR&TAF报告)。

可查询的气象台以黄色和红色小点在地图上表示。

将鼠标移到小点上方,可查看气象台名称。

然后点击查看天气观测和预报。

如需切换地图:点击带黑十字的绿色按钮放大地图;点击带横线的绿色按钮缩小地图;或者点击绿色箭头查看邻近地区的地图。


METAR-TAF: